createdAt,value
2018-02-24T00:00:44.085Z,0
2018-02-24T00:01:43.808Z,0
2018-02-24T00:02:43.828Z,0
2018-02-24T00:03:43.547Z,0
2018-02-24T00:04:44.406Z,0
2018-02-24T00:05:44.192Z,0
2018-02-24T00:06:43.855Z,0
2018-02-24T00:07:44.424Z,0
2018-02-24T00:08:43.870Z,0
2018-02-24T00:09:44.437Z,0
2018-02-24T00:10:44.519Z,0
2018-02-24T00:11:44.456Z,0
2018-02-24T00:12:43.919Z,0
2018-02-24T00:13:43.906Z,0
2018-02-24T00:14:44.820Z,0
2018-02-24T00:15:44.260Z,0
2018-02-24T00:16:44.509Z,0
2018-02-24T00:17:43.673Z,0
2018-02-24T00:18:43.947Z,0
2018-02-24T00:19:44.526Z,0
2018-02-24T00:20:44.333Z,0
2018-02-24T00:21:43.694Z,0
2018-02-24T00:22:43.983Z,0
2018-02-24T00:23:44.277Z,0
2018-02-24T00:24:44.281Z,0
2018-02-24T00:25:44.313Z,0
2018-02-24T00:26:44.297Z,0
2018-02-24T00:27:44.305Z,0
2018-02-24T00:28:44.321Z,0
2018-02-24T00:29:43.753Z,0
2018-02-24T00:30:43.766Z,0
2018-02-24T00:31:44.359Z,0
2018-02-24T00:32:44.085Z,0
2018-02-24T00:33:43.786Z,0
2018-02-24T00:34:44.360Z,0
2018-02-24T00:35:44.469Z,0
2018-02-24T00:36:44.103Z,0
2018-02-24T00:37:44.676Z,0
2018-02-24T00:38:44.684Z,0
2018-02-24T00:39:44.126Z,0
2018-02-24T00:40:43.849Z,0
2018-02-24T00:41:44.147Z,0
2018-02-24T00:42:44.436Z,0
2018-02-24T00:43:44.432Z,0
2018-02-24T00:44:44.165Z,0
2018-02-24T00:45:44.742Z,0
2018-02-24T00:46:44.466Z,0
2018-02-24T00:47:44.477Z,0
2018-02-24T00:48:44.198Z,0
2018-02-24T00:49:44.486Z,0
2018-02-24T00:50:43.698Z,0
2018-02-24T00:51:44.506Z,0
2018-02-24T00:52:44.524Z,0
2018-02-24T00:53:44.521Z,0
2018-02-24T00:54:44.526Z,0
2018-02-24T00:55:44.814Z,0
2018-02-24T00:56:44.544Z,0
2018-02-24T00:57:44.548Z,0
2018-02-24T00:58:44.329Z,0
2018-02-24T00:59:44.287Z,0
2018-02-24T01:00:44.022Z,0
2018-02-24T01:01:44.585Z,0
2018-02-24T01:02:44.587Z,0
2018-02-24T01:03:44.886Z,0
2018-02-24T01:04:44.606Z,0
2018-02-24T01:05:44.701Z,0
2018-02-24T01:06:44.904Z,0
2018-02-24T01:07:44.648Z,0
2018-02-24T01:08:44.356Z,0
2018-02-24T01:09:44.647Z,0
2018-02-24T01:10:44.986Z,0
2018-02-24T01:11:44.955Z,0
2018-02-24T01:12:44.959Z,0
2018-02-24T01:13:44.681Z,0
2018-02-24T01:14:44.410Z,0
2018-02-24T01:15:44.131Z,0
2018-02-24T01:16:44.709Z,0
2018-02-24T01:17:44.148Z,0
2018-02-24T01:18:44.164Z,0
2018-02-24T01:19:44.169Z,0
2018-02-24T01:20:44.461Z,0
2018-02-24T01:21:44.469Z,0
2018-02-24T01:22:44.761Z,0
2018-02-24T01:23:44.481Z,0
2018-02-24T01:24:44.485Z,0
2018-02-24T01:25:44.786Z,0
2018-02-24T01:26:45.078Z,0
2018-02-24T01:27:44.510Z,0
2018-02-24T01:28:44.807Z,0
2018-02-24T01:29:44.538Z,0
2018-02-24T01:30:44.540Z,0
2018-02-24T01:31:44.827Z,0
2018-02-24T01:32:44.558Z,0
2018-02-24T01:33:44.840Z,0
2018-02-24T01:34:44.859Z,0
2018-02-24T01:35:44.911Z,0
2018-02-24T01:36:44.305Z,0
2018-02-24T01:37:44.880Z,0
2018-02-24T01:38:44.886Z,0
2018-02-24T01:39:45.175Z,0
2018-02-24T01:40:44.896Z,0
2018-02-24T01:41:44.909Z,0
2018-02-24T01:42:44.915Z,0
2018-02-24T01:43:44.645Z,0
2018-02-24T01:44:44.366Z,0
2018-02-24T01:45:44.656Z,0
2018-02-24T01:46:44.956Z,0
2018-02-24T01:47:44.950Z,0
2018-02-24T01:48:44.114Z,0
2018-02-24T01:49:44.697Z,0
2018-02-24T01:50:45.035Z,0
2018-02-24T01:51:44.703Z,0
2018-02-24T01:52:44.992Z,0
2018-02-24T01:53:45.003Z,0
2018-02-24T01:54:45.303Z,0
2018-02-24T01:55:44.742Z,0
2018-02-24T01:56:45.031Z,0
2018-02-24T01:57:45.356Z,0
2018-02-24T01:58:45.040Z,0
2018-02-24T01:59:45.054Z,0
2018-02-24T02:00:45.067Z,0
2018-02-24T02:01:45.066Z,0
2018-02-24T02:02:45.072Z,0
2018-02-24T02:03:45.083Z,0
2018-02-24T02:04:44.830Z,0
2018-02-24T02:05:45.106Z,0
2018-02-24T02:06:45.114Z,0
2018-02-24T02:07:44.838Z,0
2018-02-24T02:08:44.843Z,0
2018-02-24T02:09:45.135Z,0
2018-02-24T02:10:45.427Z,0
2018-02-24T02:11:45.147Z,0
2018-02-24T02:12:44.877Z,0
2018-02-24T02:13:44.594Z,0
2018-02-24T02:14:44.602Z,0
2018-02-24T02:15:44.892Z,0
2018-02-24T02:16:45.475Z,0
2018-02-24T02:17:45.213Z,0
2018-02-24T02:18:45.199Z,0
2018-02-24T02:19:45.496Z,0
2018-02-24T02:20:45.213Z,0
2018-02-24T02:21:45.221Z,0
2018-02-24T02:22:45.244Z,0
2018-02-24T02:23:44.682Z,0
2018-02-24T02:24:45.252Z,0
2018-02-24T02:25:45.312Z,0
2018-02-24T02:26:45.553Z,0
2018-02-24T02:27:45.273Z,0
2018-02-24T02:28:45.285Z,0
2018-02-24T02:29:45.009Z,0
2018-02-24T02:30:45.322Z,0
2018-02-24T02:31:45.598Z,0
2018-02-24T02:32:45.606Z,0
2018-02-24T02:33:45.633Z,0
2018-02-24T02:34:45.604Z,0
2018-02-24T02:35:44.543Z,0
2018-02-24T02:36:44.781Z,0
2018-02-24T02:37:45.070Z,0
2018-02-24T02:38:45.659Z,0
2018-02-24T02:39:45.394Z,0
2018-02-24T02:40:45.434Z,0
2018-02-24T02:41:45.388Z,0
2018-02-24T02:42:45.123Z,0
2018-02-24T02:43:45.408Z,0
2018-02-24T02:44:45.417Z,0
2018-02-24T02:45:45.482Z,0
2018-02-24T02:46:44.859Z,0
2018-02-24T02:47:44.872Z,0
2018-02-24T02:48:45.451Z,0
2018-02-24T02:49:45.162Z,0
2018-02-24T02:50:45.454Z,0
2018-02-24T02:51:45.768Z,0
2018-02-24T02:52:44.638Z,0
2018-02-24T02:53:45.491Z,0
2018-02-24T02:54:45.507Z,0
2018-02-24T02:55:45.037Z,0
2018-02-24T02:56:44.944Z,0
2018-02-24T02:57:45.235Z,0
2018-02-24T02:58:45.820Z,0
2018-02-24T02:59:45.536Z,0
2018-02-24T03:00:45.536Z,0
2018-02-24T03:01:45.549Z,0
2018-02-24T03:02:45.556Z,0
2018-02-24T03:03:45.353Z,0
2018-02-24T03:04:45.588Z,0
2018-02-24T03:05:45.634Z,0
2018-02-24T03:06:45.595Z,0
2018-02-24T03:07:45.324Z,0
2018-02-24T03:08:45.310Z,0
2018-02-24T03:09:45.615Z,0
2018-02-24T03:10:45.613Z,0
2018-02-24T03:11:45.348Z,0
2018-02-24T03:12:45.635Z,0
2018-02-24T03:13:45.358Z,0
2018-02-24T03:14:44.795Z,0
2018-02-24T03:15:45.942Z,0
2018-02-24T03:16:45.945Z,0
2018-02-24T03:17:45.671Z,0
2018-02-24T03:18:45.957Z,0
2018-02-24T03:19:44.844Z,0
2018-02-24T03:20:45.793Z,0
2018-02-24T03:21:45.421Z,0
2018-02-24T03:22:45.432Z,0
2018-02-24T03:23:45.709Z,0
2018-02-24T03:24:46.007Z,0
2018-02-24T03:25:45.443Z,0
2018-02-24T03:26:46.014Z,0
2018-02-24T03:27:45.179Z,0
2018-02-24T03:28:46.036Z,0
2018-02-24T03:29:45.755Z,0
2018-02-24T03:30:45.206Z,0
2018-02-24T03:31:45.841Z,0
2018-02-24T03:32:45.218Z,0
2018-02-24T03:33:45.800Z,0
2018-02-24T03:34:45.538Z,0
2018-02-24T03:35:46.090Z,0
2018-02-24T03:36:45.300Z,0
2018-02-24T03:37:45.540Z,0
2018-02-24T03:38:45.557Z,0
2018-02-24T03:39:45.835Z,0
2018-02-24T03:40:45.847Z,0
2018-02-24T03:41:45.581Z,0
2018-02-24T03:42:45.579Z,0
2018-02-24T03:43:45.589Z,0
2018-02-24T03:44:45.891Z,0
2018-02-24T03:45:45.609Z,0
2018-02-24T03:46:45.892Z,0
2018-02-24T03:47:45.341Z,0
2018-02-24T03:48:45.921Z,0
2018-02-24T03:49:45.644Z,0
2018-02-24T03:50:45.646Z,0
2018-02-24T03:51:45.931Z,0
2018-02-24T03:52:45.375Z,0
2018-02-24T03:53:46.225Z,0
2018-02-24T03:54:46.237Z,0
2018-02-24T03:55:45.968Z,0
2018-02-24T03:56:45.971Z,0
2018-02-24T03:57:45.695Z,0
2018-02-24T03:58:46.271Z,0
2018-02-24T03:59:45.717Z,0
2018-02-24T04:00:46.009Z,0
2018-02-24T04:01:46.045Z,0
2018-02-24T04:02:45.452Z,0
2018-02-24T04:03:45.752Z,0
2018-02-24T04:04:46.045Z,0
2018-02-24T04:05:45.481Z,0
2018-02-24T04:06:46.340Z,0
2018-02-24T04:07:46.347Z,0
2018-02-24T04:08:45.791Z,0
2018-02-24T04:09:46.350Z,0
2018-02-24T04:10:45.513Z,0
2018-02-24T04:11:46.147Z,0
2018-02-24T04:12:46.100Z,0
2018-02-24T04:13:46.105Z,0
2018-02-24T04:14:46.394Z,0
2018-02-24T04:15:45.853Z,0
2018-02-24T04:16:46.128Z,0
2018-02-24T04:17:46.134Z,0
2018-02-24T04:18:46.144Z,0
2018-02-24T04:19:46.436Z,0
2018-02-24T04:20:46.175Z,0
2018-02-24T04:21:46.508Z,0
2018-02-24T04:22:45.888Z,0
2018-02-24T04:23:45.610Z,0
2018-02-24T04:24:46.467Z,0
2018-02-24T04:25:46.204Z,0
2018-02-24T04:26:46.199Z,0
2018-02-24T04:27:45.929Z,0
2018-02-24T04:28:45.931Z,0
2018-02-24T04:29:46.217Z,0
2018-02-24T04:30:46.518Z,0
2018-02-24T04:31:46.240Z,0
2018-02-24T04:32:45.972Z,0
2018-02-24T04:33:46.257Z,0
2018-02-24T04:34:46.261Z,0
2018-02-24T04:35:45.987Z,0
2018-02-24T04:36:46.673Z,0
2018-02-24T04:37:46.011Z,0
2018-02-24T04:38:46.008Z,0
2018-02-24T04:39:46.799Z,0
2018-02-24T04:40:46.604Z,0
2018-02-24T04:41:46.030Z,0
2018-02-24T04:42:46.341Z,0
2018-02-24T04:43:46.333Z,0
2018-02-24T04:44:46.059Z,0
2018-02-24T04:45:46.392Z,0
2018-02-24T04:46:45.788Z,0
2018-02-24T04:47:45.803Z,0
2018-02-24T04:48:46.369Z,0
2018-02-24T04:49:45.825Z,0
2018-02-24T04:50:46.384Z,0
2018-02-24T04:51:46.390Z,0
2018-02-24T04:52:45.847Z,0
2018-02-24T04:53:46.409Z,0
2018-02-24T04:54:45.857Z,0
2018-02-24T04:55:46.422Z,0
2018-02-24T04:56:46.141Z,0
2018-02-24T04:57:46.438Z,0
2018-02-24T04:58:45.886Z,0
2018-02-24T04:59:46.170Z,0
2018-02-24T05:00:46.743Z,0
2018-02-24T05:01:46.240Z,0
2018-02-24T05:02:46.758Z,0
2018-02-24T05:03:45.918Z,0
2018-02-24T05:04:45.937Z,0
2018-02-24T05:05:46.806Z,0
2018-02-24T05:06:45.946Z,0
2018-02-24T05:07:46.233Z,0
2018-02-24T05:08:46.246Z,0
2018-02-24T05:09:46.249Z,0
2018-02-24T05:10:46.547Z,0
2018-02-24T05:11:46.550Z,0
2018-02-24T05:12:46.281Z,0
2018-02-24T05:13:46.561Z,0
2018-02-24T05:14:46.574Z,0
2018-02-24T05:15:46.304Z,0
2018-02-24T05:16:46.585Z,0
2018-02-24T05:17:46.924Z,0
2018-02-24T05:18:46.598Z,0
2018-02-24T05:19:46.321Z,0
2018-02-24T05:20:46.616Z,0
2018-02-24T05:21:46.915Z,0
2018-02-24T05:22:46.645Z,0
2018-02-24T05:23:46.635Z,0
2018-02-24T05:24:46.927Z,0
2018-02-24T05:25:46.666Z,0
2018-02-24T05:26:46.662Z,0
2018-02-24T05:27:46.721Z,0
2018-02-24T05:28:46.393Z,0
2018-02-24T05:29:46.964Z,0
2018-02-24T05:30:46.984Z,0
2018-02-24T05:31:47.079Z,0
2018-02-24T05:32:46.991Z,0
2018-02-24T05:33:46.724Z,0
2018-02-24T05:34:47.008Z,0
2018-02-24T05:35:46.730Z,0
2018-02-24T05:36:46.456Z,0
2018-02-24T05:37:46.738Z,0
2018-02-24T05:38:46.758Z,0
2018-02-24T05:39:46.777Z,0
2018-02-24T05:40:46.769Z,0
2018-02-24T05:41:46.489Z,0
2018-02-24T05:42:46.589Z,0
2018-02-24T05:43:46.787Z,0
2018-02-24T05:44:46.521Z,0
2018-02-24T05:45:46.245Z,0
2018-02-24T05:46:46.528Z,0
2018-02-24T05:47:46.590Z,0
2018-02-24T05:48:47.140Z,0
2018-02-24T05:49:46.554Z,0
2018-02-24T05:50:46.557Z,0
2018-02-24T05:51:46.853Z,0
2018-02-24T05:52:46.574Z,0
2018-02-24T05:53:46.319Z,0
2018-02-24T05:54:46.875Z,0
2018-02-24T05:55:46.599Z,0
2018-02-24T05:56:46.904Z,0
2018-02-24T05:57:46.968Z,0
2018-02-24T05:58:46.904Z,0
2018-02-24T05:59:46.908Z,0
2018-02-24T06:00:46.916Z,0
2018-02-24T06:01:46.642Z,0
2018-02-24T06:02:46.928Z,0
2018-02-24T06:03:46.660Z,0
2018-02-24T06:04:46.956Z,0
2018-02-24T06:05:46.672Z,0
2018-02-24T06:06:46.684Z,0
2018-02-24T06:07:47.032Z,0
2018-02-24T06:08:46.692Z,0
2018-02-24T06:09:46.702Z,0
2018-02-24T06:10:47.274Z,0
2018-02-24T06:11:47.272Z,0
2018-02-24T06:12:46.724Z,0
2018-02-24T06:13:47.014Z,0
2018-02-24T06:14:47.023Z,0
2018-02-24T06:15:47.057Z,0
2018-02-24T06:16:46.758Z,0
2018-02-24T06:17:47.098Z,0
2018-02-24T06:18:47.054Z,0
2018-02-24T06:19:46.716Z,0
2018-02-24T06:20:47.349Z,0
2018-02-24T06:21:47.360Z,0
2018-02-24T06:22:47.102Z,0
2018-02-24T06:23:47.381Z,0
2018-02-24T06:24:47.398Z,0
2018-02-24T06:25:47.104Z,0
2018-02-24T06:26:47.115Z,0
2018-02-24T06:27:46.559Z,0
2018-02-24T06:28:46.854Z,0
2018-02-24T06:29:46.856Z,0
2018-02-24T06:30:47.154Z,0
2018-02-24T06:31:47.157Z,0
2018-02-24T06:32:46.879Z,0
2018-02-24T06:33:47.166Z,0
2018-02-24T06:34:47.173Z,0
2018-02-24T06:35:46.898Z,0
2018-02-24T06:36:47.219Z,0
2018-02-24T06:37:47.478Z,0
2018-02-24T06:38:47.503Z,0
2018-02-24T06:39:47.206Z,0
2018-02-24T06:40:47.245Z,0
2018-02-24T06:41:46.948Z,0
2018-02-24T06:42:47.294Z,0
2018-02-24T06:43:47.271Z,0
2018-02-24T06:44:46.704Z,0
2018-02-24T06:45:46.975Z,0
2018-02-24T06:46:47.585Z,0
2018-02-24T06:47:46.995Z,0
2018-02-24T06:48:47.385Z,0
2018-02-24T06:49:46.814Z,0
2018-02-24T06:50:47.300Z,5
2018-02-24T06:51:47.335Z,0
2018-02-24T06:52:46.744Z,5
2018-02-24T06:53:47.318Z,5
2018-02-24T06:54:47.749Z,5
2018-02-24T06:55:47.056Z,5
2018-02-24T06:56:47.342Z,5
2018-02-24T06:57:47.109Z,5
2018-02-24T06:58:47.099Z,5
2018-02-24T06:59:47.081Z,5
2018-02-24T07:00:47.447Z,5
2018-02-24T07:01:47.382Z,5
2018-02-24T07:02:47.734Z,5
2018-02-24T07:03:47.141Z,5
2018-02-24T07:04:47.686Z,5
2018-02-24T07:05:46.858Z,5
2018-02-24T07:06:47.707Z,5
2018-02-24T07:07:47.455Z,5
2018-02-24T07:08:47.443Z,5
2018-02-24T07:09:47.164Z,5
2018-02-24T07:10:47.222Z,5
2018-02-24T07:11:47.450Z,5
2018-02-24T07:12:47.198Z,5
2018-02-24T07:13:47.468Z,5
2018-02-24T07:14:47.497Z,5
2018-02-24T07:15:47.494Z,5
2018-02-24T07:16:47.540Z,5
2018-02-24T07:17:47.226Z,5
2018-02-24T07:18:47.801Z,5
2018-02-24T07:19:47.518Z,5
2018-02-24T07:20:47.530Z,5
2018-02-24T07:21:47.815Z,5
2018-02-24T07:22:47.534Z,5
2018-02-24T07:23:47.542Z,5
2018-02-24T07:24:46.988Z,5
2018-02-24T07:25:47.278Z,5
2018-02-24T07:26:47.305Z,5
2018-02-24T07:27:47.335Z,5
2018-02-24T07:28:47.602Z,5
2018-02-24T07:29:47.597Z,5
2018-02-24T07:30:47.604Z,5
2018-02-24T07:31:47.338Z,5
2018-02-24T07:32:47.628Z,5
2018-02-24T07:33:47.063Z,5
2018-02-24T07:34:47.736Z,5
2018-02-24T07:35:47.351Z,5
2018-02-24T07:36:47.363Z,5
2018-02-24T07:37:47.086Z,5
2018-02-24T07:38:47.661Z,5
2018-02-24T07:39:47.690Z,5
2018-02-24T07:40:47.679Z,5
2018-02-24T07:41:47.688Z,5
2018-02-24T07:42:47.411Z,5
2018-02-24T07:43:47.706Z,5
2018-02-24T07:44:46.864Z,5
2018-02-24T07:45:47.430Z,10
2018-02-24T07:46:47.731Z,10
2018-02-24T07:47:47.266Z,10
2018-02-24T07:48:47.741Z,10
2018-02-24T07:49:47.491Z,10
2018-02-24T07:50:47.473Z,10
2018-02-24T07:51:47.778Z,10
2018-02-24T07:52:48.142Z,10
2018-02-24T07:53:47.775Z,10
2018-02-24T07:54:47.525Z,10
2018-02-24T07:55:48.105Z,10
2018-02-24T07:56:47.807Z,10
2018-02-24T07:57:47.824Z,10
2018-02-24T07:58:47.544Z,10
2018-02-24T07:59:47.553Z,10
2018-02-24T08:00:47.267Z,10
2018-02-24T08:01:47.289Z,10
2018-02-24T08:02:47.570Z,10
2018-02-24T08:03:47.865Z,10
2018-02-24T08:04:48.386Z,10
2018-02-24T08:05:48.168Z,10
2018-02-24T08:06:48.167Z,10
2018-02-24T08:07:48.171Z,10
2018-02-24T08:08:47.335Z,10
2018-02-24T08:09:47.930Z,10
2018-02-24T08:10:47.915Z,10
2018-02-24T08:11:47.661Z,10
2018-02-24T08:12:48.226Z,10
2018-02-24T08:13:47.658Z,10
2018-02-24T08:14:48.024Z,10
2018-02-24T08:15:47.959Z,15
2018-02-24T08:16:47.984Z,10
2018-02-24T08:17:47.988Z,15
2018-02-24T08:18:48.267Z,15
2018-02-24T08:19:48.291Z,15
2018-02-24T08:20:47.732Z,15
2018-02-24T08:21:47.731Z,15
2018-02-24T08:22:47.453Z,15
2018-02-24T08:23:48.037Z,15
2018-02-24T08:24:47.769Z,15
2018-02-24T08:25:47.480Z,15
2018-02-24T08:26:48.110Z,15
2018-02-24T08:27:48.071Z,15
2018-02-24T08:28:47.787Z,15
2018-02-24T08:29:47.808Z,15
2018-02-24T08:30:48.369Z,15
2018-02-24T08:31:48.381Z,15
2018-02-24T08:32:47.536Z,15
2018-02-24T08:33:48.391Z,15
2018-02-24T08:34:48.119Z,15
2018-02-24T08:35:47.567Z,20
2018-02-24T08:36:47.851Z,20
2018-02-24T08:37:47.864Z,20
2018-02-24T08:38:48.156Z,20
2018-02-24T08:39:47.872Z,20
2018-02-24T08:40:48.448Z,20
2018-02-24T08:41:47.888Z,20
2018-02-24T08:42:48.471Z,15
2018-02-24T08:43:48.198Z,15
2018-02-24T08:44:48.497Z,15
2018-02-24T08:45:47.970Z,15
2018-02-24T08:46:47.936Z,15
2018-02-24T08:47:48.571Z,15
2018-02-24T08:48:48.261Z,15
2018-02-24T08:49:47.681Z,15
2018-02-24T08:50:48.252Z,15
2018-02-24T08:51:48.268Z,15
2018-02-24T08:52:48.443Z,15
2018-02-24T08:53:47.426Z,15
2018-02-24T08:54:48.574Z,10
2018-02-24T08:55:48.011Z,15
2018-02-24T08:56:48.021Z,15
2018-02-24T08:57:48.600Z,15
2018-02-24T08:58:48.719Z,15
2018-02-24T08:59:48.340Z,15
2018-02-24T09:00:47.488Z,15
2018-02-24T09:01:48.110Z,15
2018-02-24T09:02:48.357Z,15
2018-02-24T09:03:48.650Z,15
2018-02-24T09:04:47.813Z,15
2018-02-24T09:05:48.102Z,15
2018-02-24T09:06:48.127Z,10
2018-02-24T09:07:48.742Z,10
2018-02-24T09:08:48.411Z,10
2018-02-24T09:09:48.700Z,10
2018-02-24T09:10:48.718Z,10
2018-02-24T09:11:48.165Z,10
2018-02-24T09:12:48.219Z,10
2018-02-24T09:13:48.453Z,5
2018-02-24T09:14:48.183Z,5
2018-02-24T09:15:48.474Z,5
2018-02-24T09:16:48.476Z,5
2018-02-24T09:17:48.346Z,5
2018-02-24T09:18:47.937Z,5
2018-02-24T09:19:48.519Z,5
2018-02-24T09:20:48.796Z,5
2018-02-24T09:21:47.961Z,5
2018-02-24T09:22:48.583Z,5
2018-02-24T09:23:48.271Z,5
2018-02-24T09:24:48.266Z,5
2018-02-24T09:25:48.855Z,10
2018-02-24T09:26:48.565Z,10
2018-02-24T09:27:48.429Z,10
2018-02-24T09:28:48.614Z,5
2018-02-24T09:29:48.320Z,5
2018-02-24T09:30:48.971Z,5
2018-02-24T09:31:48.356Z,5
2018-02-24T09:32:48.964Z,5
2018-02-24T09:33:48.665Z,5
2018-02-24T09:34:48.647Z,5
2018-02-24T09:35:48.653Z,5
2018-02-24T09:36:48.669Z,10
2018-02-24T09:37:48.966Z,5
2018-02-24T09:38:48.557Z,5
2018-02-24T09:39:48.689Z,5
2018-02-24T09:40:48.708Z,10
2018-02-24T09:41:48.427Z,5
2018-02-24T09:42:48.891Z,5
2018-02-24T09:43:48.739Z,5
2018-02-24T09:44:48.463Z,5
2018-02-24T09:45:48.211Z,5
2018-02-24T09:46:47.917Z,5
2018-02-24T09:47:48.777Z,5
2018-02-24T09:48:48.775Z,5
2018-02-24T09:49:48.504Z,5
2018-02-24T09:50:48.519Z,5
2018-02-24T09:51:49.191Z,10
2018-02-24T09:52:48.625Z,10
2018-02-24T09:53:48.342Z,10
2018-02-24T09:54:48.835Z,10
2018-02-24T09:55:48.558Z,10
2018-02-24T09:56:48.869Z,10
2018-02-24T09:57:48.576Z,20
2018-02-24T09:58:48.950Z,15
2018-02-24T09:59:48.337Z,25
2018-02-24T10:00:48.327Z,20
2018-02-24T10:01:48.899Z,30
2018-02-24T10:02:48.943Z,30
2018-02-24T10:03:49.200Z,20
2018-02-24T10:04:48.935Z,20
2018-02-24T10:05:49.218Z,30
2018-02-24T10:06:48.662Z,30
2018-02-24T10:07:48.953Z,25
2018-02-24T10:08:49.443Z,30
2018-02-24T10:09:49.266Z,20
2018-02-24T10:10:48.986Z,25
2018-02-24T10:11:49.048Z,30
2018-02-24T10:12:48.723Z,30
2018-02-24T10:13:49.360Z,30
2018-02-24T10:14:48.743Z,30
2018-02-24T10:15:48.465Z,30
2018-02-24T10:16:49.331Z,40
2018-02-24T10:17:49.060Z,35
2018-02-24T10:18:49.558Z,40
2018-02-24T10:19:48.222Z,40
2018-02-24T10:20:49.083Z,35
2018-02-24T10:21:48.845Z,35
2018-02-24T10:22:49.110Z,30
2018-02-24T10:23:49.398Z,30
2018-02-24T10:24:49.125Z,20
2018-02-24T10:25:49.416Z,15
2018-02-24T10:26:49.144Z,15
2018-02-24T10:27:49.153Z,10
2018-02-24T10:28:49.445Z,10
2018-02-24T10:29:49.178Z,15
2018-02-24T10:30:49.466Z,10
2018-02-24T10:31:49.484Z,10
2018-02-24T10:32:48.914Z,10
2018-02-24T10:33:49.498Z,10
2018-02-24T10:34:48.946Z,10
2018-02-24T10:35:49.510Z,10
2018-02-24T10:36:48.958Z,15
2018-02-24T10:37:48.973Z,15
2018-02-24T10:38:48.983Z,15
2018-02-24T10:39:49.274Z,15
2018-02-24T10:40:49.567Z,15
2018-02-24T10:41:49.308Z,15
2018-02-24T10:42:49.025Z,15
2018-02-24T10:43:49.340Z,15
2018-02-24T10:44:49.049Z,10
2018-02-24T10:45:49.337Z,10
2018-02-24T10:46:49.649Z,10
2018-02-24T10:47:49.412Z,10
2018-02-24T10:48:49.432Z,10
2018-02-24T10:49:49.675Z,10
2018-02-24T10:50:49.388Z,10
2018-02-24T10:51:49.116Z,10
2018-02-24T10:52:49.126Z,10
2018-02-24T10:53:49.423Z,10
2018-02-24T10:54:49.716Z,10
2018-02-24T10:55:49.160Z,10
2018-02-24T10:56:49.468Z,10
2018-02-24T10:57:49.749Z,10
2018-02-24T10:58:49.470Z,10
2018-02-24T10:59:49.212Z,10
2018-02-24T11:00:49.215Z,10
2018-02-24T11:01:49.223Z,10
2018-02-24T11:02:49.521Z,10
2018-02-24T11:03:49.576Z,10
2018-02-24T11:04:49.544Z,10
2018-02-24T11:05:49.714Z,10
2018-02-24T11:06:49.554Z,10
2018-02-24T11:07:49.572Z,10
2018-02-24T11:08:49.869Z,10
2018-02-24T11:09:49.589Z,10
2018-02-24T11:10:49.615Z,10
2018-02-24T11:11:49.910Z,10
2018-02-24T11:12:49.175Z,10
2018-02-24T11:13:49.978Z,10
2018-02-24T11:14:49.650Z,10
2018-02-24T11:15:49.938Z,15
2018-02-24T11:16:49.387Z,15
2018-02-24T11:17:49.143Z,15
2018-02-24T11:18:49.692Z,15
2018-02-24T11:19:49.135Z,15
2018-02-24T11:20:50.004Z,15
2018-02-24T11:21:50.026Z,15
2018-02-24T11:22:50.018Z,15
2018-02-24T11:23:50.050Z,15
2018-02-24T11:24:49.808Z,10
2018-02-24T11:25:50.060Z,15
2018-02-24T11:26:49.769Z,10
2018-02-24T11:27:50.086Z,15
2018-02-24T11:28:50.132Z,15
2018-02-24T11:29:49.529Z,15
2018-02-24T11:30:49.840Z,15
2018-02-24T11:31:49.834Z,15
2018-02-24T11:32:50.128Z,15
2018-02-24T11:33:49.563Z,15
2018-02-24T11:34:49.859Z,15
2018-02-24T11:35:49.886Z,15
2018-02-24T11:36:49.878Z,15
2018-02-24T11:37:49.611Z,15
2018-02-24T11:38:49.954Z,15
2018-02-24T11:39:49.913Z,10
2018-02-24T11:40:49.648Z,15
2018-02-24T11:41:50.002Z,10
2018-02-24T11:42:49.674Z,15
2018-02-24T11:43:50.298Z,15
2018-02-24T11:44:49.972Z,10
2018-02-24T11:45:50.276Z,15
2018-02-24T11:46:49.992Z,10
2018-02-24T11:47:50.012Z,15
2018-02-24T11:48:49.730Z,15
2018-02-24T11:49:49.747Z,15
2018-02-24T11:50:50.040Z,15
2018-02-24T11:51:50.051Z,15
2018-02-24T11:52:50.128Z,15
2018-02-24T11:53:50.076Z,15
2018-02-24T11:54:50.082Z,20
2018-02-24T11:55:50.295Z,15
2018-02-24T11:56:49.540Z,15
2018-02-24T11:57:50.118Z,15
2018-02-24T11:58:49.582Z,20
2018-02-24T11:59:50.143Z,25
2018-02-24T12:00:49.919Z,20
2018-02-24T12:01:49.597Z,15
2018-02-24T12:02:49.897Z,25
2018-02-24T12:03:50.468Z,25
2018-02-24T12:04:50.481Z,20
2018-02-24T12:05:50.215Z,15
2018-02-24T12:06:50.225Z,15
2018-02-24T12:07:50.522Z,20
2018-02-24T12:08:50.584Z,20
2018-02-24T12:09:50.260Z,20
2018-02-24T12:10:50.265Z,20
2018-02-24T12:11:50.582Z,15
2018-02-24T12:12:50.289Z,15
2018-02-24T12:13:50.765Z,15
2018-02-24T12:14:50.320Z,20
2018-02-24T12:15:50.611Z,15
2018-02-24T12:16:50.623Z,20
2018-02-24T12:17:50.636Z,25
2018-02-24T12:18:50.374Z,20
2018-02-24T12:19:50.472Z,15
2018-02-24T12:20:50.675Z,10
2018-02-24T12:21:50.395Z,10
2018-02-24T12:22:50.408Z,15
2018-02-24T12:23:50.427Z,15
2018-02-24T12:24:50.145Z,15
2018-02-24T12:25:50.728Z,15
2018-02-24T12:26:50.732Z,10
2018-02-24T12:27:50.745Z,10
2018-02-24T12:28:50.473Z,10
2018-02-24T12:29:50.495Z,15
2018-02-24T12:30:51.431Z,20
2018-02-24T12:31:50.509Z,20
2018-02-24T12:32:49.959Z,15
2018-02-24T12:33:50.819Z,10
2018-02-24T12:34:50.879Z,10
2018-02-24T12:35:50.556Z,10
2018-02-24T12:36:50.003Z,10
2018-02-24T12:37:50.590Z,10
2018-02-24T12:38:50.874Z,10
2018-02-24T12:39:50.328Z,10
2018-02-24T12:40:50.629Z,10
2018-02-24T12:41:50.636Z,10
2018-02-24T12:42:50.641Z,10
2018-02-24T12:43:50.707Z,10
2018-02-24T12:44:50.671Z,10
2018-02-24T12:45:50.678Z,10
2018-02-24T12:46:50.904Z,10
2018-02-24T12:47:50.712Z,10
2018-02-24T12:48:50.710Z,10
2018-02-24T12:49:50.806Z,10
2018-02-24T12:50:50.736Z,10
2018-02-24T12:51:51.038Z,10
2018-02-24T12:52:50.475Z,5
2018-02-24T12:53:50.788Z,5
2018-02-24T12:54:50.841Z,5
2018-02-24T12:55:50.518Z,10
2018-02-24T12:56:50.814Z,10
2018-02-24T12:57:50.543Z,10
2018-02-24T12:58:50.826Z,10
2018-02-24T12:59:51.191Z,10
2018-02-24T13:00:51.158Z,10
2018-02-24T13:01:50.585Z,5
2018-02-24T13:02:50.882Z,5
2018-02-24T13:03:50.610Z,5
2018-02-24T13:04:50.908Z,5
2018-02-24T13:05:50.644Z,5
2018-02-24T13:06:50.923Z,5
2018-02-24T13:07:50.373Z,5
2018-02-24T13:08:51.052Z,5
2018-02-24T13:09:50.448Z,5
2018-02-24T13:10:51.015Z,5
2018-02-24T13:11:50.432Z,5
2018-02-24T13:12:50.711Z,5
2018-02-24T13:13:50.732Z,5
2018-02-24T13:14:51.311Z,5
2018-02-24T13:15:51.040Z,10
2018-02-24T13:16:51.049Z,10
2018-02-24T13:17:51.058Z,5
2018-02-24T13:18:51.074Z,5
2018-02-24T13:19:51.090Z,5
2018-02-24T13:20:51.094Z,5
2018-02-24T13:21:50.822Z,5
2018-02-24T13:22:51.115Z,5
2018-02-24T13:23:51.412Z,5
2018-02-24T13:24:50.861Z,5
2018-02-24T13:25:51.437Z,5
2018-02-24T13:26:51.164Z,5
2018-02-24T13:27:51.177Z,5
2018-02-24T13:28:50.907Z,5
2018-02-24T13:29:50.926Z,5
2018-02-24T13:30:50.933Z,5
2018-02-24T13:31:50.941Z,5
2018-02-24T13:32:51.240Z,5
2018-02-24T13:33:51.250Z,5
2018-02-24T13:34:51.266Z,5
2018-02-24T13:35:51.268Z,5
2018-02-24T13:36:51.569Z,5
2018-02-24T13:37:51.012Z,5
2018-02-24T13:38:51.312Z,5
2018-02-24T13:39:50.749Z,5
2018-02-24T13:40:50.778Z,5
2018-02-24T13:41:51.059Z,5
2018-02-24T13:42:51.359Z,5
2018-02-24T13:43:51.081Z,5
2018-02-24T13:44:51.094Z,5
2018-02-24T13:45:51.671Z,10
2018-02-24T13:46:51.687Z,10
2018-02-24T13:47:51.417Z,10
2018-02-24T13:48:51.432Z,25
2018-02-24T13:49:51.440Z,30
2018-02-24T13:50:51.741Z,30
2018-02-24T13:51:51.459Z,30
2018-02-24T13:52:51.757Z,25
2018-02-24T13:53:50.918Z,20
2018-02-24T13:54:51.786Z,15
2018-02-24T13:55:51.564Z,15
2018-02-24T13:56:51.524Z,20
2018-02-24T13:57:51.538Z,20
2018-02-24T13:58:51.556Z,15
2018-02-24T13:59:51.281Z,10
2018-02-24T14:00:51.576Z,5
2018-02-24T14:01:51.585Z,5
2018-02-24T14:02:50.781Z,5
2018-02-24T14:03:51.606Z,5
2018-02-24T14:04:51.625Z,5
2018-02-24T14:05:51.632Z,5
2018-02-24T14:06:51.639Z,5
2018-02-24T14:07:51.659Z,10
2018-02-24T14:08:51.948Z,10
2018-02-24T14:09:51.114Z,10
2018-02-24T14:10:51.689Z,10
2018-02-24T14:11:51.733Z,10
2018-02-24T14:12:52.002Z,10
2018-02-24T14:13:51.743Z,10
2018-02-24T14:14:51.784Z,10
2018-02-24T14:15:51.778Z,10
2018-02-24T14:16:51.776Z,15
2018-02-24T14:17:51.216Z,15
2018-02-24T14:18:51.798Z,15
2018-02-24T14:19:52.131Z,15
2018-02-24T14:20:51.805Z,10
2018-02-24T14:21:51.819Z,10
2018-02-24T14:22:51.539Z,10
2018-02-24T14:23:51.842Z,10
2018-02-24T14:24:52.135Z,10
2018-02-24T14:25:51.588Z,10
2018-02-24T14:26:52.154Z,10
2018-02-24T14:27:51.602Z,10
2018-02-24T14:28:52.208Z,5
2018-02-24T14:29:52.029Z,5
2018-02-24T14:30:52.004Z,5
2018-02-24T14:31:52.217Z,10
2018-02-24T14:32:51.658Z,10
2018-02-24T14:33:51.974Z,10
2018-02-24T14:34:51.985Z,10
2018-02-24T14:35:51.703Z,10